Time;durP1;ratioP1;P1;durP2;ratioP2;P2;SDS_P1;SDS_P2;PMS_P1;PMS_P2;Temp;Humidity;BMP_temperature;BMP_pressure;BME280_temperature;BME280_humidity;BME280_pressure;Samples;Min_cycle;Max_cycle;Signal;HPM_P1;HPM_P2
2023/04/09 00:01:02;;;;;;;40.07;19.10;;;;;;;;;;5032907;28;20047;-74
2023/04/09 00:03:28;;;;;;;39.60;19.20;;;;;;;;;;5032729;28;20029;-74
2023/04/09 00:05:54;;;;;;;43.67;19.70;;;;;;;;;;5031081;28;20109;-73
2023/04/09 00:08:22;;;;;;;44.17;19.07;;;;;;;;;;5033234;28;20025;-73
2023/04/09 00:10:48;;;;;;;40.43;19.50;;;;;;;;;;5032845;28;20055;-74
2023/04/09 00:13:14;;;;;;;39.43;19.13;;;;;;;;;;5033087;28;20393;-74
2023/04/09 00:15:39;;;;;;;38.43;19.47;;;;;;;;;;5033050;28;20029;-73
2023/04/09 00:18:05;;;;;;;42.17;18.90;;;;;;;;;;5032555;28;20029;-73
2023/04/09 00:20:30;;;;;;;42.60;18.40;;;;;;;;;;5032543;28;20032;-74
2023/04/09 00:22:57;;;;;;;37.03;18.17;;;;;;;;;;5031553;28;20039;-73
2023/04/09 00:25:22;;;;;;;35.57;17.40;;;;;;;;;;5030652;28;20022;-74
2023/04/09 00:27:48;;;;;;;37.10;18.57;;;;;;;;;;5030608;28;20041;-75
2023/04/09 00:30:14;;;;;;;42.60;18.97;;;;;;;;;;5030260;28;20493;-72
2023/04/09 00:32:40;;;;;;;37.10;18.30;;;;;;;;;;5030721;28;20029;-74
2023/04/09 00:35:06;;;;;;;37.37;18.50;;;;;;;;;;5029481;28;20032;-74
2023/04/09 00:37:32;;;;;;;43.30;19.13;;;;;;;;;;5030267;28;20048;-74
2023/04/09 00:39:57;;;;;;;35.70;19.07;;;;;;;;;;5024785;28;20485;-73
2023/04/09 00:42:23;;;;;;;42.53;19.47;;;;;;;;;;5012287;28;20030;-74
2023/04/09 00:44:48;;;;;;;37.30;18.07;;;;;;;;;;5012271;28;20482;-74
2023/04/09 00:47:14;;;;;;;36.63;18.27;;;;;;;;;;5012588;28;20041;-73
2023/04/09 00:49:39;;;;;;;39.20;19.43;;;;;;;;;;5012562;28;20033;-74
2023/04/09 00:52:06;;;;;;;38.00;18.67;;;;;;;;;;5012539;28;20061;-72
2023/04/09 00:54:31;;;;;;;41.17;19.07;;;;;;;;;;5012388;28;20030;-74
2023/04/09 00:56:58;;;;;;;40.50;18.97;;;;;;;;;;5011919;28;20033;-74
2023/04/09 00:59:25;;;;;;;39.50;18.90;;;;;;;;;;5012133;28;20044;-75
2023/04/09 01:01:50;;;;;;;41.03;19.70;;;;;;;;;;5012444;28;20060;-74
2023/04/09 01:04:16;;;;;;;42.43;19.23;;;;;;;;;;5010691;28;20030;-73
2023/04/09 01:06:50;;;;;;;42.20;19.47;;;;;;;;;;5010581;28;20032;-73
2023/04/09 01:09:38;;;;;;;38.80;18.30;;;;;;;;;;5010431;28;20075;-73
2023/04/09 01:12:10;;;;;;;35.53;17.97;;;;;;;;;;5010286;28;20292;-73
2023/04/09 01:15:06;;;;;;;37.90;17.73;;;;;;;;;;5011405;28;20044;-73
2023/04/09 01:17:45;;;;;;;35.93;17.03;;;;;;;;;;5001351;28;20125;-73
2023/04/09 01:20:21;;;;;;;36.23;17.47;;;;;;;;;;5011135;28;20471;-73
2023/04/09 01:23:22;;;;;;;38.43;18.03;;;;;;;;;;4993930;28;20079;-75
2023/04/09 01:26:02;;;;;;;36.73;18.17;;;;;;;;;;5012292;28;20040;-75
2023/04/09 01:28:31;;;;;;;41.47;19.43;;;;;;;;;;5011841;28;20076;-73
2023/04/09 01:31:03;;;;;;;35.33;17.97;;;;;;;;;;5011836;28;20034;-73
2023/04/09 01:33:30;;;;;;;38.88;17.27;;;;;;;;;;5009740;28;20028;-73
2023/04/09 01:35:56;;;;;;;36.33;17.73;;;;;;;;;;5011518;28;20060;-74
2023/04/09 01:38:23;;;;;;;42.70;19.67;;;;;;;;;;5010079;28;20030;-74
2023/04/09 01:40:49;;;;;;;40.57;18.57;;;;;;;;;;5025312;28;20033;-74
2023/04/09 01:43:16;;;;;;;38.33;18.53;;;;;;;;;;5031197;28;20033;-73
2023/04/09 01:45:44;;;;;;;36.43;17.23;;;;;;;;;;5030528;28;20053;-73
2023/04/09 01:48:11;;;;;;;41.93;18.07;;;;;;;;;;5031339;28;20442;-73
2023/04/09 01:50:39;;;;;;;39.13;18.83;;;;;;;;;;5030860;28;20128;-73
2023/04/09 01:53:05;;;;;;;38.33;19.40;;;;;;;;;;5030271;28;20079;-73
2023/04/09 01:55:30;;;;;;;38.73;19.40;;;;;;;;;;5029976;28;20335;-74
2023/04/09 01:57:56;;;;;;;41.33;17.77;;;;;;;;;;5031094;28;20083;-73
2023/04/09 02:00:25;;;;;;;36.13;16.40;;;;;;;;;;5029425;28;20100;-73
2023/04/09 02:02:59;;;;;;;33.27;17.13;;;;;;;;;;5030894;28;20420;-75
2023/04/09 02:05:30;;;;;;;39.70;18.03;;;;;;;;;;5030495;28;20029;-73
2023/04/09 02:08:01;;;;;;;37.20;16.93;;;;;;;;;;5030918;28;20100;-73
2023/04/09 02:10:30;;;;;;;33.17;17.43;;;;;;;;;;5029061;28;20454;-73
2023/04/09 02:12:57;;;;;;;36.27;19.20;;;;;;;;;;5030789;28;20384;-73
2023/04/09 02:15:23;;;;;;;35.73;17.13;;;;;;;;;;5028920;28;20120;-74
2023/04/09 02:17:49;;;;;;;33.30;18.43;;;;;;;;;;5029282;28;20029;-74
2023/04/09 02:20:18;;;;;;;39.07;18.40;;;;;;;;;;5028974;28;20021;-74
2023/04/09 02:22:47;;;;;;;35.43;18.30;;;;;;;;;;5030619;28;20037;-72
2023/04/09 02:25:14;;;;;;;37.43;19.57;;;;;;;;;;5028990;28;20517;-74
2023/04/09 02:27:40;;;;;;;41.40;18.40;;;;;;;;;;5029858;28;20029;-74
2023/04/09 02:30:06;;;;;;;42.10;19.30;;;;;;;;;;5029057;28;20040;-73
2023/04/09 02:32:31;;;;;;;38.43;18.73;;;;;;;;;;5030181;28;20033;-74
2023/04/09 02:34:57;;;;;;;40.60;18.97;;;;;;;;;;5029367;28;20059;-73
2023/04/09 02:37:22;;;;;;;40.07;19.93;;;;;;;;;;5030440;28;20016;-73
2023/04/09 02:39:48;;;;;;;43.23;20.03;;;;;;;;;;5023139;28;20466;-73
2023/04/09 02:42:13;;;;;;;40.57;18.33;;;;;;;;;;5008911;28;20037;-74
2023/04/09 02:44:38;;;;;;;42.97;20.57;;;;;;;;;;5010314;28;20050;-72
2023/04/09 02:47:04;;;;;;;41.87;20.33;;;;;;;;;;5009298;28;20025;-73
2023/04/09 02:49:29;;;;;;;45.43;20.20;;;;;;;;;;5009491;28;20113;-73
2023/04/09 02:51:55;;;;;;;44.83;21.00;;;;;;;;;;5010805;28;20033;-73
2023/04/09 02:54:20;;;;;;;40.07;19.87;;;;;;;;;;5010515;28;20052;-74
2023/04/09 02:56:46;;;;;;;41.33;19.73;;;;;;;;;;5010030;28;20025;-75
2023/04/09 02:59:11;;;;;;;42.60;19.10;;;;;;;;;;5009364;28;20048;-73
2023/04/09 03:01:37;;;;;;;43.60;19.83;;;;;;;;;;5009607;28;20338;-73
2023/04/09 03:04:02;;;;;;;37.73;18.80;;;;;;;;;;5009974;28;20029;-74
2023/04/09 03:06:28;;;;;;;37.90;19.53;;;;;;;;;;5009887;28;20025;-73
2023/04/09 03:08:53;;;;;;;39.87;20.17;;;;;;;;;;5008740;28;20502;-73
2023/04/09 03:11:19;;;;;;;39.70;18.70;;;;;;;;;;5009859;28;20386;-74
2023/04/09 03:13:45;;;;;;;39.60;21.27;;;;;;;;;;5008776;28;20025;-74
2023/04/09 03:16:10;;;;;;;37.00;18.47;;;;;;;;;;5008676;28;20073;-74
2023/04/09 03:18:36;;;;;;;38.70;18.97;;;;;;;;;;5009919;28;20026;-74
2023/04/09 03:21:08;;;;;;;39.07;18.90;;;;;;;;;;5009875;28;20034;-73
2023/04/09 03:23:34;;;;;;;42.45;18.85;;;;;;;;;;5008274;28;20022;-73
2023/04/09 03:26:04;;;;;;;36.90;18.27;;;;;;;;;;5008745;28;20353;-73
2023/04/09 03:28:30;;;;;;;39.07;18.60;;;;;;;;;;5010502;28;20337;-73
2023/04/09 03:30:56;;;;;;;40.13;20.30;;;;;;;;;;5008524;28;20418;-73
2023/04/09 03:33:22;;;;;;;41.63;19.53;;;;;;;;;;5009568;28;20030;-74
2023/04/09 03:35:47;;;;;;;40.27;18.90;;;;;;;;;;5008710;28;20121;-73
2023/04/09 03:38:13;;;;;;;42.23;20.50;;;;;;;;;;5009874;28;20117;-74
2023/04/09 03:40:40;;;;;;;41.73;20.00;;;;;;;;;;5021356;28;20049;-75
2023/04/09 03:43:05;;;;;;;42.10;20.60;;;;;;;;;;5029437;28;20404;-74
2023/04/09 03:45:31;;;;;;;42.67;18.90;;;;;;;;;;5029038;28;20419;-74
2023/04/09 03:47:56;;;;;;;41.67;20.87;;;;;;;;;;5029262;28;20156;-74
2023/04/09 03:50:22;;;;;;;39.47;19.03;;;;;;;;;;5029584;28;20036;-74
2023/04/09 03:52:47;;;;;;;38.83;20.10;;;;;;;;;;5029545;28;20057;-74
2023/04/09 03:55:13;;;;;;;40.80;19.70;;;;;;;;;;5028110;28;20021;-74
2023/04/09 03:57:38;;;;;;;45.43;19.47;;;;;;;;;;5028005;28;20029;-74
2023/04/09 04:00:05;;;;;;;40.90;18.90;;;;;;;;;;5029257;28;20474;-74
2023/04/09 04:02:32;;;;;;;37.97;18.33;;;;;;;;;;5028811;28;20329;-74
2023/04/09 04:04:58;;;;;;;34.33;18.40;;;;;;;;;;5029266;28;20442;-74
2023/04/09 04:07:24;;;;;;;38.20;17.83;;;;;;;;;;5027199;28;20041;-74
2023/04/09 04:09:49;;;;;;;42.00;19.83;;;;;;;;;;5029657;28;20033;-73
2023/04/09 04:12:15;;;;;;;36.70;17.83;;;;;;;;;;5032468;28;20112;-73
2023/04/09 04:14:40;;;;;;;41.43;18.40;;;;;;;;;;5033078;28;20033;-74
2023/04/09 04:17:06;;;;;;;49.23;19.70;;;;;;;;;;5032593;28;20025;-73
2023/04/09 04:19:31;;;;;;;42.37;19.73;;;;;;;;;;5031244;28;20028;-73
2023/04/09 04:21:57;;;;;;;39.93;20.30;;;;;;;;;;5027551;28;20040;-73
2023/04/09 04:24:22;;;;;;;42.63;19.90;;;;;;;;;;5012619;28;20030;-74
2023/04/09 04:26:48;;;;;;;43.30;20.77;;;;;;;;;;5011235;28;20061;-72
2023/04/09 04:29:13;;;;;;;43.27;20.47;;;;;;;;;;5012759;28;20046;-74
2023/04/09 04:31:39;;;;;;;45.23;20.47;;;;;;;;;;5013097;28;20032;-74
2023/04/09 04:34:04;;;;;;;46.60;22.47;;;;;;;;;;5012910;28;20541;-75
2023/04/09 04:36:30;;;;;;;49.20;22.23;;;;;;;;;;5012697;28;20087;-74
2023/04/09 04:38:55;;;;;;;41.53;20.03;;;;;;;;;;5011482;28;20069;-73
2023/04/09 04:41:21;;;;;;;44.13;20.67;;;;;;;;;;5029915;28;20121;-74
2023/04/09 04:43:46;;;;;;;42.37;20.03;;;;;;;;;;5031708;28;20406;-73
2023/04/09 04:46:12;;;;;;;46.70;21.10;;;;;;;;;;5031695;28;20025;-73
2023/04/09 04:48:37;;;;;;;46.30;20.23;;;;;;;;;;5032211;28;20042;-73
2023/04/09 04:51:03;;;;;;;51.97;21.27;;;;;;;;;;5032543;28;20030;-74
2023/04/09 04:53:29;;;;;;;44.07;20.37;;;;;;;;;;5030909;28;20064;-74
2023/04/09 04:55:54;;;;;;;44.17;20.97;;;;;;;;;;5032317;28;20280;-74
2023/04/09 04:58:20;;;;;;;45.90;21.67;;;;;;;;;;5030428;28;20064;-74
2023/04/09 05:00:45;;;;;;;45.97;22.20;;;;;;;;;;5030420;28;20033;-74
2023/04/09 05:03:11;;;;;;;39.03;19.33;;;;;;;;;;5032067;28;20029;-73
2023/04/09 05:05:36;;;;;;;40.00;20.03;;;;;;;;;;5032093;28;20025;-74
2023/04/09 05:08:02;;;;;;;41.93;20.27;;;;;;;;;;5030756;28;20075;-74
2023/04/09 05:10:28;;;;;;;47.83;21.17;;;;;;;;;;5030296;28;20052;-74
2023/04/09 05:12:53;;;;;;;41.60;20.93;;;;;;;;;;5031736;28;20434;-74
2023/04/09 05:15:19;;;;;;;39.50;19.43;;;;;;;;;;5031512;28;20108;-74
2023/04/09 05:17:44;;;;;;;41.47;18.63;;;;;;;;;;5031496;28;20064;-73
2023/04/09 05:20:10;;;;;;;40.67;19.20;;;;;;;;;;5029952;28;20033;-73
2023/04/09 05:22:36;;;;;;;41.07;18.77;;;;;;;;;;5031078;28;20368;-73
2023/04/09 05:25:02;;;;;;;37.23;18.83;;;;;;;;;;5030851;28;20100;-74
2023/04/09 05:27:28;;;;;;;40.77;19.17;;;;;;;;;;5031392;28;20021;-73
2023/04/09 05:29:53;;;;;;;40.90;18.87;;;;;;;;;;5032050;28;20524;-74
2023/04/09 05:32:19;;;;;;;38.27;19.37;;;;;;;;;;5032500;28;20083;-73
2023/04/09 05:34:45;;;;;;;36.37;18.90;;;;;;;;;;5031645;28;20033;-74
2023/04/09 05:37:10;;;;;;;40.30;18.97;;;;;;;;;;5029765;28;20120;-74
2023/04/09 05:39:36;;;;;;;40.07;19.97;;;;;;;;;;5025595;28;20156;-74
2023/04/09 05:42:01;;;;;;;39.47;19.63;;;;;;;;;;5011583;28;20437;-74
2023/04/09 05:44:27;;;;;;;35.53;17.70;;;;;;;;;;5011809;28;20076;-75
2023/04/09 05:46:52;;;;;;;39.47;19.17;;;;;;;;;;5010601;28;20043;-74
2023/04/09 05:49:18;;;;;;;39.17;18.57;;;;;;;;;;5011057;28;20168;-72
2023/04/09 05:51:43;;;;;;;38.40;20.13;;;;;;;;;;5011655;28;20048;-73
2023/04/09 05:54:09;;;;;;;37.40;18.90;;;;;;;;;;5009981;28;20192;-73
2023/04/09 05:56:34;;;;;;;40.77;19.27;;;;;;;;;;5010994;28;20493;-72
2023/04/09 05:59:00;;;;;;;36.00;18.47;;;;;;;;;;5009500;28;20032;-73
2023/04/09 06:01:26;;;;;;;42.27;18.47;;;;;;;;;;5010895;28;20030;-73
2023/04/09 06:03:51;;;;;;;40.20;19.30;;;;;;;;;;5008316;28;20105;-73
2023/04/09 06:06:17;;;;;;;39.33;19.17;;;;;;;;;;5009525;28;20033;-73
2023/04/09 06:08:43;;;;;;;42.50;19.67;;;;;;;;;;5009419;28;20040;-74
2023/04/09 06:11:10;;;;;;;37.77;18.70;;;;;;;;;;5010909;28;20032;-72
2023/04/09 06:13:36;;;;;;;37.67;19.13;;;;;;;;;;5009417;28;20045;-76
2023/04/09 06:16:08;;;;;;;36.33;19.20;;;;;;;;;;5010942;28;20026;-72
2023/04/09 06:18:34;;;;;;;34.28;18.65;;;;;;;;;;5009494;28;20030;-73
2023/04/09 06:21:01;;;;;;;37.37;17.77;;;;;;;;;;5010699;28;20463;-74
2023/04/09 06:23:27;;;;;;;38.33;18.10;;;;;;;;;;5010643;28;20025;-72
2023/04/09 06:25:52;;;;;;;43.97;18.70;;;;;;;;;;5010335;28;20088;-74
2023/04/09 06:28:18;;;;;;;40.27;19.37;;;;;;;;;;5010400;28;20057;-74
2023/04/09 06:30:43;;;;;;;37.83;18.97;;;;;;;;;;5010828;28;20025;-75
2023/04/09 06:33:09;;;;;;;38.23;19.30;;;;;;;;;;5009640;28;20475;-74
2023/04/09 06:35:35;;;;;;;40.47;19.67;;;;;;;;;;5009026;28;20034;-74
2023/04/09 06:38:00;;;;;;;40.03;18.00;;;;;;;;;;5009578;28;20497;-74
2023/04/09 06:40:26;;;;;;;37.57;18.60;;;;;;;;;;5020246;28;20015;-73
2023/04/09 06:42:51;;;;;;;34.33;18.53;;;;;;;;;;5028384;28;20021;-73
2023/04/09 06:45:17;;;;;;;39.20;18.97;;;;;;;;;;5028663;28;20053;-73
2023/04/09 06:47:43;;;;;;;36.50;18.27;;;;;;;;;;5027731;28;20403;-74
2023/04/09 06:50:08;;;;;;;37.20;18.47;;;;;;;;;;5029726;28;20433;-74
2023/04/09 06:52:34;;;;;;;32.00;17.63;;;;;;;;;;5028100;28;20040;-74
2023/04/09 06:54:59;;;;;;;36.97;19.07;;;;;;;;;;5028212;28;20033;-74
2023/04/09 06:57:26;;;;;;;38.87;18.87;;;;;;;;;;5029600;28;20104;-76
2023/04/09 06:59:51;;;;;;;37.67;19.27;;;;;;;;;;5029339;28;20021;-73
2023/04/09 07:02:17;;;;;;;37.60;18.53;;;;;;;;;;5028977;28;20029;-74
2023/04/09 07:04:42;;;;;;;40.73;19.97;;;;;;;;;;5029463;28;20030;-73
2023/04/09 07:07:08;;;;;;;38.77;18.73;;;;;;;;;;5029855;28;20388;-74
2023/04/09 07:09:33;;;;;;;38.90;18.90;;;;;;;;;;5029611;28;20021;-75
2023/04/09 07:11:59;;;;;;;34.47;18.20;;;;;;;;;;5029830;28;20029;-74
2023/04/09 07:14:24;;;;;;;38.53;19.00;;;;;;;;;;5029940;28;20021;-75
2023/04/09 07:16:50;;;;;;;33.97;18.80;;;;;;;;;;5029437;28;20497;-74
2023/04/09 07:19:15;;;;;;;41.30;19.53;;;;;;;;;;5029619;28;20056;-74
2023/04/09 07:21:41;;;;;;;37.20;19.50;;;;;;;;;;5027949;28;20021;-76
2023/04/09 07:24:06;;;;;;;39.47;20.17;;;;;;;;;;5028257;28;20063;-73
2023/04/09 07:26:32;;;;;;;36.33;18.60;;;;;;;;;;5027801;28;20048;-74
2023/04/09 07:28:58;;;;;;;39.75;19.42;;;;;;;;;;5028411;28;20022;-73
2023/04/09 07:31:23;;;;;;;34.90;19.43;;;;;;;;;;5029446;28;20533;-73
2023/04/09 07:33:49;;;;;;;37.63;18.87;;;;;;;;;;5029428;28;20037;-75
2023/04/09 07:36:14;;;;;;;35.93;18.97;;;;;;;;;;5029477;28;20151;-75
2023/04/09 07:38:40;;;;;;;39.77;20.87;;;;;;;;;;5029137;28;20040;-74
2023/04/09 07:41:05;;;;;;;34.03;19.30;;;;;;;;;;5012882;28;20041;-74
2023/04/09 07:43:31;;;;;;;37.00;20.40;;;;;;;;;;5008403;28;20584;-73
2023/04/09 07:45:57;;;;;;;39.10;19.43;;;;;;;;;;5013288;28;20036;-74
2023/04/09 07:48:22;;;;;;;40.87;20.60;;;;;;;;;;5013411;28;20025;-75
2023/04/09 07:50:48;;;;;;;39.37;20.67;;;;;;;;;;5012949;28;20028;-74
2023/04/09 07:53:14;;;;;;;38.80;19.43;;;;;;;;;;5012101;28;20036;-74
2023/04/09 07:55:40;;;;;;;38.90;18.88;;;;;;;;;;5011850;28;20819;-74
2023/04/09 07:58:06;;;;;;;34.13;17.83;;;;;;;;;;5012181;28;20026;-74
2023/04/09 08:00:31;;;;;;;37.60;18.93;;;;;;;;;;5012977;28;20018;-74
2023/04/09 08:02:57;;;;;;;35.78;17.92;;;;;;;;;;5011692;28;20028;-73
2023/04/09 08:05:23;;;;;;;40.27;19.47;;;;;;;;;;5011287;28;20029;-75
2023/04/09 08:07:50;;;;;;;40.20;20.70;;;;;;;;;;5013922;28;20058;-74
2023/04/09 08:10:15;;;;;;;42.35;20.27;;;;;;;;;;5011577;28;20466;-74
2023/04/09 08:12:42;;;;;;;39.33;19.90;;;;;;;;;;5012996;28;20060;-74
2023/04/09 08:15:08;;;;;;;38.17;19.75;;;;;;;;;;5011294;28;20442;-74
2023/04/09 08:17:35;;;;;;;42.42;20.90;;;;;;;;;;5011448;28;20022;-75
2023/04/09 08:20:02;;;;;;;40.53;19.10;;;;;;;;;;5011258;28;20125;-74
2023/04/09 08:22:27;;;;;;;42.92;20.50;;;;;;;;;;5011560;28;20026;-73
2023/04/09 08:24:55;;;;;;;37.92;19.88;;;;;;;;;;5012270;28;20049;-74
2023/04/09 08:27:20;;;;;;;39.25;19.55;;;;;;;;;;5012754;28;20079;-74
2023/04/09 08:29:46;;;;;;;41.30;21.45;;;;;;;;;;5012506;28;20022;-74
2023/04/09 08:32:12;;;;;;;42.13;20.45;;;;;;;;;;5011873;28;20121;-74
2023/04/09 08:34:37;;;;;;;39.30;20.58;;;;;;;;;;5011731;28;20083;-73
2023/04/09 08:37:03;;;;;;;38.22;20.00;;;;;;;;;;5011628;28;20029;-74
2023/04/09 08:39:28;;;;;;;35.67;19.05;;;;;;;;;;5015948;28;20052;-75
2023/04/09 08:41:58;;;;;;;40.65;21.05;;;;;;;;;;5032280;28;20025;-75
2023/04/09 08:44:28;;;;;;;39.53;20.30;;;;;;;;;;5031174;28;20506;-75
2023/04/09 08:46:54;;;;;;;37.67;20.13;;;;;;;;;;5032724;28;20044;-75
2023/04/09 08:49:20;;;;;;;36.75;20.10;;;;;;;;;;5030346;28;20025;-75
2023/04/09 08:51:47;;;;;;;34.63;19.38;;;;;;;;;;5032146;28;20048;-74
2023/04/09 08:54:18;;;;;;;35.45;19.33;;;;;;;;;;5030114;28;20072;-73
2023/04/09 08:56:45;;;;;;;34.75;20.05;;;;;;;;;;5030383;28;20060;-74
2023/04/09 08:59:14;;;;;;;39.60;20.40;;;;;;;;;;5031932;28;20032;-73
2023/04/09 09:01:40;;;;;;;37.42;19.92;;;;;;;;;;5031577;28;20071;-74
2023/04/09 09:04:07;;;;;;;38.03;20.60;;;;;;;;;;5030711;28;20017;-74
2023/04/09 09:06:37;;;;;;;44.45;20.70;;;;;;;;;;5030415;28;20025;-74
2023/04/09 09:09:10;;;;;;;41.33;20.70;;;;;;;;;;5030058;28;20428;-74
2023/04/09 09:11:47;;;;;;;37.45;20.17;;;;;;;;;;5031541;28;20025;-74
2023/04/09 09:14:19;;;;;;;33.60;18.67;;;;;;;;;;5030173;28;20029;-75
2023/04/09 09:16:57;;;;;;;35.88;18.45;;;;;;;;;;5030905;28;20060;-75
2023/04/09 09:19:25;;;;;;;33.67;18.40;;;;;;;;;;5031149;28;20505;-74
2023/04/09 09:21:56;;;;;;;41.42;19.23;;;;;;;;;;5029902;28;20076;-75
2023/04/09 09:24:22;;;;;;;35.72;20.10;;;;;;;;;;5030187;28;20389;-74
2023/04/09 09:26:47;;;;;;;43.70;20.08;;;;;;;;;;5031593;28;20040;-75
2023/04/09 09:29:13;;;;;;;36.35;18.98;;;;;;;;;;5030405;28;20425;-75
2023/04/09 09:31:49;;;;;;;37.65;20.95;;;;;;;;;;5029595;28;20032;-75
2023/04/09 09:34:19;;;;;;;36.92;19.88;;;;;;;;;;5030905;28;20509;-74
2023/04/09 09:36:45;;;;;;;35.17;20.83;;;;;;;;;;5029236;28;20374;-74
2023/04/09 09:39:12;;;;;;;38.95;21.27;;;;;;;;;;5030107;28;20067;-74
2023/04/09 09:41:41;;;;;;;40.33;21.40;;;;;;;;;;5009702;28;20026;-74
2023/04/09 09:44:07;;;;;;;36.92;19.52;;;;;;;;;;5009532;28;20054;-75
2023/04/09 09:46:39;;;;;;;37.25;20.92;;;;;;;;;;5010666;28;20507;-75
2023/04/09 09:49:05;;;;;;;34.78;19.60;;;;;;;;;;5009566;28;20445;-74
2023/04/09 09:51:32;;;;;;;37.85;20.20;;;;;;;;;;5009450;28;20482;-74
2023/04/09 09:53:58;;;;;;;34.90;19.73;;;;;;;;;;5010480;28;20091;-74
2023/04/09 09:56:33;;;;;;;35.75;20.02;;;;;;;;;;5010437;28;20100;-74
2023/04/09 09:59:29;;;;;;;34.47;18.52;;;;;;;;;;5010598;28;20029;-74
2023/04/09 10:02:04;;;;;;;38.45;19.17;;;;;;;;;;5006668;28;20041;-74
2023/04/09 10:04:34;;;;;;;39.72;20.27;;;;;;;;;;5009754;28;20367;-74
2023/04/09 10:07:02;;;;;;;33.17;18.33;;;;;;;;;;5011204;28;20033;-74
2023/04/09 10:09:30;;;;;;;38.60;19.90;;;;;;;;;;5010951;28;20029;-74
2023/04/09 10:11:58;;;;;;;35.25;19.05;;;;;;;;;;5008803;28;20045;-73
2023/04/09 10:14:26;;;;;;;35.50;20.00;;;;;;;;;;5009081;28;20029;-74
2023/04/09 10:16:52;;;;;;;35.42;19.48;;;;;;;;;;5009616;28;20033;-74
2023/04/09 10:19:17;;;;;;;41.08;19.80;;;;;;;;;;5009719;28;20032;-75
2023/04/09 10:21:46;;;;;;;30.67;18.77;;;;;;;;;;5010263;28;20025;-75
2023/04/09 10:24:12;;;;;;;33.10;19.50;;;;;;;;;;5009544;28;20033;-73
2023/04/09 10:26:43;;;;;;;34.35;19.30;;;;;;;;;;5009378;28;20030;-73
2023/04/09 10:29:15;;;;;;;31.35;19.10;;;;;;;;;;5010900;28;20025;-74
2023/04/09 10:32:02;;;;;;;33.15;17.80;;;;;;;;;;5010837;28;20038;-73
2023/04/09 10:34:28;;;;;;;31.55;18.75;;;;;;;;;;5009331;28;20430;-75
2023/04/09 10:37:01;;;;;;;38.42;20.80;;;;;;;;;;5009032;28;20022;-74
2023/04/09 10:39:29;;;;;;;34.47;19.80;;;;;;;;;;5012479;28;20013;-75
2023/04/09 10:41:59;;;;;;;31.27;19.05;;;;;;;;;;5029291;28;20041;-75
2023/04/09 10:44:31;;;;;;;34.30;19.20;;;;;;;;;;5029651;28;20053;-75
2023/04/09 10:46:57;;;;;;;39.78;21.67;;;;;;;;;;5013157;28;20037;-74
2023/04/09 10:49:26;;;;;;;36.13;21.98;;;;;;;;;;5031077;28;20064;-74
2023/04/09 10:52:10;;;;;;;32.65;18.55;;;;;;;;;;5028726;28;20121;-74
2023/04/09 10:54:38;;;;;;;39.97;20.20;;;;;;;;;;5028618;28;20037;-74
2023/04/09 10:57:10;;;;;;;36.47;18.63;;;;;;;;;;5028323;28;20033;-73
2023/04/09 10:59:52;;;;;;;35.03;19.52;;;;;;;;;;5028684;28;20083;-76
2023/04/09 11:02:36;;;;;;;28.85;17.77;;;;;;;;;;5030426;28;20033;-74
2023/04/09 11:05:17;;;;;;;26.67;15.80;;;;;;;;;;5030200;28;20108;-74
2023/04/09 11:07:56;;;;;;;29.33;17.00;;;;;;;;;;5029002;28;20033;-74
2023/04/09 11:10:21;;;;;;;29.15;16.42;;;;;;;;;;5030859;28;20037;-74
2023/04/09 11:12:48;;;;;;;28.52;17.05;;;;;;;;;;5028801;28;20025;-74
2023/04/09 11:15:17;;;;;;;31.48;17.65;;;;;;;;;;5028855;28;20026;-74
2023/04/09 11:17:44;;;;;;;24.95;16.55;;;;;;;;;;5029135;28;20022;-74
2023/04/09 11:20:10;;;;;;;28.02;17.17;;;;;;;;;;5033181;28;20097;-74
2023/04/09 11:22:36;;;;;;;27.17;16.35;;;;;;;;;;5033406;28;20075;-76
2023/04/09 11:25:03;;;;;;;24.88;14.93;;;;;;;;;;5035073;28;20079;-74
2023/04/09 11:27:29;;;;;;;28.75;16.25;;;;;;;;;;5033650;28;20163;-73
2023/04/09 11:29:55;;;;;;;25.13;15.18;;;;;;;;;;5033827;28;20057;-73
2023/04/09 11:32:21;;;;;;;27.75;14.57;;;;;;;;;;5033957;28;20029;-75
2023/04/09 11:34:46;;;;;;;19.00;13.43;;;;;;;;;;5033378;28;20025;-75
2023/04/09 11:37:16;;;;;;;23.15;14.05;;;;;;;;;;5032038;28;20059;-74
2023/04/09 11:39:45;;;;;;;26.27;14.07;;;;;;;;;;5028354;28;20018;-75
2023/04/09 11:42:14;;;;;;;27.80;14.75;;;;;;;;;;4995601;28;20061;-74
2023/04/09 11:44:40;;;;;;;21.85;14.55;;;;;;;;;;5014091;28;20426;-74
2023/04/09 11:47:08;;;;;;;27.08;15.93;;;;;;;;;;5014105;28;20521;-75
2023/04/09 11:49:34;;;;;;;21.95;13.48;;;;;;;;;;5012876;28;20112;-74
2023/04/09 11:52:02;;;;;;;25.30;14.23;;;;;;;;;;5013056;28;20122;-74
2023/04/09 11:54:32;;;;;;;20.38;12.38;;;;;;;;;;5014473;28;20025;-75
2023/04/09 11:56:58;;;;;;;20.83;12.95;;;;;;;;;;5012670;28;20390;-74
2023/04/09 11:59:24;;;;;;;29.13;15.93;;;;;;;;;;5013619;28;20018;-74
2023/04/09 12:01:50;;;;;;;24.48;14.23;;;;;;;;;;5012621;28;20033;-74
2023/04/09 12:04:20;;;;;;;30.55;16.00;;;;;;;;;;5012650;28;20025;-75
2023/04/09 12:06:46;;;;;;;26.10;14.32;;;;;;;;;;5011621;28;20245;-74
2023/04/09 12:09:13;;;;;;;28.30;16.27;;;;;;;;;;5011581;28;20529;-74
2023/04/09 12:11:41;;;;;;;25.17;15.20;;;;;;;;;;4995949;28;20029;-74
2023/04/09 12:14:12;;;;;;;25.90;14.50;;;;;;;;;;5013843;28;20026;-75
2023/04/09 12:16:40;;;;;;;27.05;15.13;;;;;;;;;;5011949;28;20449;-75
2023/04/09 12:19:07;;;;;;;26.88;15.52;;;;;;;;;;5012408;28;20014;-74
2023/04/09 12:21:51;;;;;;;26.55;14.07;;;;;;;;;;5014065;28;20032;-74
2023/04/09 12:24:20;;;;;;;29.08;14.50;;;;;;;;;;5013058;28;20022;-73
2023/04/09 12:26:46;;;;;;;27.67;16.23;;;;;;;;;;5013357;28;20102;-74
2023/04/09 12:29:14;;;;;;;27.42;15.40;;;;;;;;;;5013309;28;20129;-74
2023/04/09 12:31:40;;;;;;;27.38;15.93;;;;;;;;;;5009378;28;20462;-74
2023/04/09 12:34:06;;;;;;;25.95;15.63;;;;;;;;;;5012559;28;20417;-74
2023/04/09 12:36:31;;;;;;;28.23;16.10;;;;;;;;;;5013155;28;20032;-75
2023/04/09 12:38:57;;;;;;;32.80;17.50;;;;;;;;;;5011515;28;20026;-74
2023/04/09 12:41:23;;;;;;;29.98;18.30;;;;;;;;;;5030085;28;20037;-74
2023/04/09 12:43:48;;;;;;;32.13;18.33;;;;;;;;;;5031315;28;20037;-72
2023/04/09 12:46:14;;;;;;;30.45;16.92;;;;;;;;;;5033060;28;20496;-74
2023/04/09 12:48:40;;;;;;;27.48;16.02;;;;;;;;;;5032729;28;20132;-73
2023/04/09 12:51:05;;;;;;;30.23;17.30;;;;;;;;;;5030664;28;20037;-74
2023/04/09 12:53:31;;;;;;;30.25;16.92;;;;;;;;;;5031282;28;20057;-75
2023/04/09 12:55:58;;;;;;;35.33;18.77;;;;;;;;;;5030887;28;20136;-74
2023/04/09 12:58:23;;;;;;;31.85;18.17;;;;;;;;;;5014585;28;20087;-74
2023/04/09 13:00:49;;;;;;;30.35;18.02;;;;;;;;;;5032687;28;20029;-74
2023/04/09 13:03:17;;;;;;;31.77;18.35;;;;;;;;;;5033063;28;20213;-75
2023/04/09 13:05:42;;;;;;;33.17;19.38;;;;;;;;;;5030843;28;20057;-74
2023/04/09 13:08:08;;;;;;;35.85;19.98;;;;;;;;;;5032634;28;20068;-74
2023/04/09 13:10:34;;;;;;;33.30;19.17;;;;;;;;;;5032321;28;20505;-73
2023/04/09 13:13:00;;;;;;;34.67;18.92;;;;;;;;;;5031824;28;20173;-74
2023/04/09 13:15:26;;;;;;;31.02;17.67;;;;;;;;;;5032504;28;20089;-74
2023/04/09 13:17:51;;;;;;;28.40;16.80;;;;;;;;;;5030630;28;20033;-74
2023/04/09 13:20:17;;;;;;;32.58;17.83;;;;;;;;;;5032543;28;20498;-74
2023/04/09 13:22:47;;;;;;;29.45;17.77;;;;;;;;;;5032193;28;20032;-75
2023/04/09 13:25:16;;;;;;;29.85;17.13;;;;;;;;;;5030974;28;20057;-74
2023/04/09 13:27:42;;;;;;;29.55;17.90;;;;;;;;;;5030966;28;20056;-74
2023/04/09 13:30:08;;;;;;;30.08;17.35;;;;;;;;;;5031579;28;20465;-74
2023/04/09 13:32:35;;;;;;;31.08;18.23;;;;;;;;;;5031647;28;20448;-74
2023/04/09 13:35:00;;;;;;;28.35;17.15;;;;;;;;;;5031526;28;20040;-74
2023/04/09 13:37:26;;;;;;;30.75;17.65;;;;;;;;;;5029780;28;20116;-74
2023/04/09 13:39:51;;;;;;;25.67;16.58;;;;;;;;;;5023369;28;20026;-74
2023/04/09 13:42:17;;;;;;;30.02;17.50;;;;;;;;;;5010518;28;20017;-74
2023/04/09 13:44:44;;;;;;;25.50;15.88;;;;;;;;;;5011148;28;20073;-74
2023/04/09 13:47:11;;;;;;;26.52;15.35;;;;;;;;;;5011699;28;20047;-75
2023/04/09 13:49:38;;;;;;;26.77;16.20;;;;;;;;;;5011261;28;20018;-74
2023/04/09 13:52:04;;;;;;;27.80;16.52;;;;;;;;;;5010069;28;20056;-73
2023/04/09 13:54:30;;;;;;;27.92;16.40;;;;;;;;;;5010835;28;20029;-74
2023/04/09 13:56:55;;;;;;;27.60;15.50;;;;;;;;;;5010501;28;20489;-75
2023/04/09 13:59:22;;;;;;;27.83;16.65;;;;;;;;;;5011201;28;20022;-74
2023/04/09 14:01:48;;;;;;;30.63;16.45;;;;;;;;;;5010202;28;20030;-75
2023/04/09 14:04:14;;;;;;;29.67;16.45;;;;;;;;;;5011829;28;20386;-73
2023/04/09 14:06:41;;;;;;;31.73;17.92;;;;;;;;;;5010020;28;20164;-74
2023/04/09 14:09:06;;;;;;;27.40;16.27;;;;;;;;;;5009560;28;20026;-74
2023/04/09 14:11:32;;;;;;;29.90;16.60;;;;;;;;;;5009801;28;20017;-74
2023/04/09 14:13:57;;;;;;;27.70;16.75;;;;;;;;;;5009910;28;20030;-75
2023/04/09 14:16:23;;;;;;;30.02;17.13;;;;;;;;;;5011740;28;20024;-74